Time;durP1;ratioP1;P1;durP2;ratioP2;P2;SDS_P1;SDS_P2;PMS_P1;PMS_P2;Temp;Humidity;BMP_temperature;BMP_pressure;BME280_temperature;BME280_humidity;BME280_pressure;Samples;Min_cycle;Max_cycle;Signal;HPM_P1;HPM_P2
2022/01/08 00:01:44;;;;;;;21.15;10.95;;;;;;;;;;5093551;28;20126;-84
2022/01/08 00:04:10;;;;;;;17.38;10.45;;;;;;;;;;5093163;28;20076;-83
2022/01/08 00:06:36;;;;;;;18.52;9.80;;;;;;;;;;5093062;28;20039;-83
2022/01/08 00:09:03;;;;;;;19.25;9.10;;;;;;;;;;5076173;28;20398;-84
2022/01/08 00:11:29;;;;;;;17.48;9.25;;;;;;;;;;5076192;28;20105;-83
2022/01/08 00:13:55;;;;;;;16.85;8.90;;;;;;;;;;5093151;28;20682;-83
2022/01/08 00:16:22;;;;;;;17.33;8.00;;;;;;;;;;5093019;28;20042;-83
2022/01/08 00:18:48;;;;;;;15.50;8.13;;;;;;;;;;5076113;28;20062;-83
2022/01/08 00:21:14;;;;;;;14.25;7.88;;;;;;;;;;5075883;28;20048;-83
2022/01/08 00:23:40;;;;;;;18.02;7.35;;;;;;;;;;5092806;28;20040;-83
2022/01/08 00:26:07;;;;;;;13.55;6.30;;;;;;;;;;5076543;28;20036;-83
2022/01/08 00:28:33;;;;;;;12.75;6.55;;;;;;;;;;5100483;28;20039;-83
2022/01/08 00:31:00;;;;;;;14.63;6.80;;;;;;;;;;5083388;28;20051;-83
2022/01/08 00:33:26;;;;;;;16.50;6.97;;;;;;;;;;5091617;28;20644;-83
2022/01/08 00:35:52;;;;;;;12.30;6.57;;;;;;;;;;5092001;28;20036;-83
2022/01/08 00:38:18;;;;;;;13.43;6.50;;;;;;;;;;5075499;28;20507;-83
2022/01/08 00:40:44;;;;;;;15.43;7.65;;;;;;;;;;5075292;28;20069;-83
2022/01/08 00:43:10;;;;;;;14.57;7.10;;;;;;;;;;5092072;28;20048;-83
2022/01/08 00:45:36;;;;;;;15.50;7.50;;;;;;;;;;5094266;28;20042;-83
2022/01/08 00:48:02;;;;;;;15.90;7.85;;;;;;;;;;5101718;28;20043;-83
2022/01/08 00:50:29;;;;;;;17.30;8.13;;;;;;;;;;5095499;28;20043;-83
2022/01/08 00:52:55;;;;;;;17.65;7.97;;;;;;;;;;5085892;28;20483;-83
2022/01/08 00:55:21;;;;;;;15.18;8.57;;;;;;;;;;5111575;28;20044;-83
2022/01/08 00:57:47;;;;;;;17.17;8.27;;;;;;;;;;5112273;28;20035;-83
2022/01/08 01:00:14;;;;;;;15.00;7.75;;;;;;;;;;5112078;28;20044;-82
2022/01/08 01:02:41;;;;;;;14.82;7.80;;;;;;;;;;5112231;28;20108;-83
2022/01/08 01:05:07;;;;;;;13.73;7.50;;;;;;;;;;5094924;28;20042;-83
2022/01/08 01:07:33;;;;;;;14.27;7.85;;;;;;;;;;5106378;28;20106;-82
2022/01/08 01:09:59;;;;;;;15.52;6.88;;;;;;;;;;5074377;28;20048;-83
2022/01/08 01:12:26;;;;;;;18.30;7.72;;;;;;;;;;5074790;28;20032;-83
2022/01/08 01:14:52;;;;;;;14.45;7.35;;;;;;;;;;5074598;28;20040;-83
2022/01/08 01:17:18;;;;;;;17.13;7.82;;;;;;;;;;5091320;28;20036;-82
2022/01/08 01:19:47;;;;;;;15.77;8.10;;;;;;;;;;5091594;28;20051;-82
2022/01/08 01:22:17;;;;;;;19.35;8.65;;;;;;;;;;5091549;28;20143;-83
2022/01/08 01:24:43;;;;;;;21.17;8.77;;;;;;;;;;5091438;28;20097;-83
2022/01/08 01:30:09;;;;;;;20.20;10.02;;;;;;;;;;5091081;28;20050;-83
2022/01/08 01:49:07;;;;;;;27.38;11.68;;;;;;;;;;5091047;28;20556;-82
2022/01/08 01:51:33;;;;;;;31.33;12.32;;;;;;;;;;5074083;28;20131;-82
2022/01/08 01:54:00;;;;;;;21.77;11.93;;;;;;;;;;5074019;28;20052;-82
2022/01/08 01:56:27;;;;;;;23.92;12.52;;;;;;;;;;5090671;28;20059;-82
2022/01/08 01:58:54;;;;;;;23.40;13.80;;;;;;;;;;5073876;28;20502;-82
2022/01/08 02:01:20;;;;;;;27.48;13.75;;;;;;;;;;5073975;28;20123;-82
2022/01/08 02:03:46;;;;;;;23.25;13.05;;;;;;;;;;5073965;28;20043;-82
2022/01/08 02:06:13;;;;;;;28.65;14.13;;;;;;;;;;5090970;28;20612;-83
2022/01/08 02:08:45;;;;;;;27.83;14.43;;;;;;;;;;5090725;28;20051;-83
2022/01/08 02:11:12;;;;;;;26.55;13.60;;;;;;;;;;5090590;28;20071;-83
2022/01/08 02:13:38;;;;;;;24.90;13.48;;;;;;;;;;5074204;28;20070;-84
2022/01/08 02:16:06;;;;;;;27.08;14.30;;;;;;;;;;5090504;28;20032;-83
2022/01/08 02:18:34;;;;;;;25.98;14.65;;;;;;;;;;5073538;28;20484;-84
2022/01/08 02:21:01;;;;;;;27.00;15.75;;;;;;;;;;5090386;28;20052;-84
2022/01/08 02:23:28;;;;;;;27.73;15.93;;;;;;;;;;5090727;28;20044;-84
2022/01/08 02:26:04;;;;;;;26.52;16.10;;;;;;;;;;5073547;28;20071;-83
2022/01/08 02:28:30;;;;;;;29.75;16.27;;;;;;;;;;5090230;28;20134;-83
2022/01/08 02:30:56;;;;;;;29.08;16.10;;;;;;;;;;5090290;28;20040;-83
2022/01/08 02:33:26;;;;;;;26.58;15.15;;;;;;;;;;5073444;28;20067;-83
2022/01/08 02:35:53;;;;;;;29.50;16.05;;;;;;;;;;5090710;28;20547;-83
2022/01/08 02:38:19;;;;;;;23.58;14.98;;;;;;;;;;5090516;28;20036;-83
2022/01/08 02:40:55;;;;;;;22.23;13.15;;;;;;;;;;5090004;28;20036;-83
2022/01/08 02:43:21;;;;;;;28.73;16.27;;;;;;;;;;5090175;28;20044;-84
2022/01/08 02:45:47;;;;;;;27.40;15.57;;;;;;;;;;5090365;28;20594;-83
2022/01/08 02:48:13;;;;;;;28.63;15.70;;;;;;;;;;5090258;28;20406;-83
2022/01/08 02:50:39;;;;;;;27.00;15.88;;;;;;;;;;5090136;28;20047;-83
2022/01/08 02:53:06;;;;;;;27.13;15.80;;;;;;;;;;5089602;28;20036;-83
2022/01/08 02:55:32;;;;;;;27.45;16.60;;;;;;;;;;5093160;28;20051;-83
2022/01/08 02:57:58;;;;;;;28.00;17.13;;;;;;;;;;5113967;28;20046;-83
2022/01/08 03:00:25;;;;;;;29.13;16.67;;;;;;;;;;5102554;28;20407;-83
2022/01/08 03:02:52;;;;;;;29.75;16.10;;;;;;;;;;5076767;28;20101;-83
2022/01/08 03:05:18;;;;;;;33.17;15.88;;;;;;;;;;5113722;28;20046;-83
2022/01/08 03:07:46;;;;;;;29.08;15.63;;;;;;;;;;5114253;28;20398;-83
2022/01/08 03:10:14;;;;;;;29.65;15.27;;;;;;;;;;5102470;28;20036;-83
2022/01/08 03:12:41;;;;;;;30.25;16.58;;;;;;;;;;5076783;28;20089;-83
2022/01/08 03:15:11;;;;;;;31.80;15.30;;;;;;;;;;5076817;28;20078;-83
2022/01/08 03:17:38;;;;;;;27.08;15.95;;;;;;;;;;5093595;28;20040;-83
2022/01/08 03:20:07;;;;;;;28.08;15.32;;;;;;;;;;5076552;28;20040;-84
2022/01/08 03:22:33;;;;;;;35.95;16.48;;;;;;;;;;5093418;28;20044;-83
2022/01/08 03:25:00;;;;;;;31.58;16.13;;;;;;;;;;5080072;28;20443;-83
2022/01/08 03:27:27;;;;;;;32.28;14.77;;;;;;;;;;5106241;28;20407;-82
2022/01/08 03:29:53;;;;;;;27.40;13.48;;;;;;;;;;5093226;28;20044;-83
2022/01/08 03:32:19;;;;;;;25.20;14.90;;;;;;;;;;5093206;28;20403;-83
2022/01/08 03:34:46;;;;;;;27.08;14.27;;;;;;;;;;5093215;28;20032;-83
2022/01/08 03:37:12;;;;;;;27.50;13.50;;;;;;;;;;5100417;28;20031;-83
2022/01/08 03:39:38;;;;;;;25.85;13.30;;;;;;;;;;5113787;28;20040;-84
2022/01/08 03:42:05;;;;;;;29.08;13.75;;;;;;;;;;5113578;28;20483;-83
2022/01/08 03:44:31;;;;;;;24.17;12.43;;;;;;;;;;5113308;28;20036;-83
2022/01/08 03:47:21;;;;;;;23.63;12.32;;;;;;;;;;5113524;28;20130;-83
2022/01/08 03:49:43;;;;;;;26.73;12.57;;;;;;;;;;5112911;28;20131;-83
2022/01/08 03:52:11;;;;;;;26.50;12.70;;;;;;;;;;5113068;28;20126;-83
2022/01/08 03:54:38;;;;;;;28.02;13.07;;;;;;;;;;5091291;28;20048;-83
2022/01/08 03:57:04;;;;;;;25.38;13.73;;;;;;;;;;5075709;28;20044;-83
2022/01/08 03:59:30;;;;;;;27.13;13.20;;;;;;;;;;5092715;28;20118;-83
2022/01/08 04:01:56;;;;;;;28.42;12.82;;;;;;;;;;5092838;28;20044;-83
2022/01/08 04:04:22;;;;;;;30.05;13.82;;;;;;;;;;5075649;28;20126;-83
2022/01/08 04:06:58;;;;;;;23.15;12.35;;;;;;;;;;5092782;28;20048;-83
2022/01/08 04:09:24;;;;;;;27.77;12.70;;;;;;;;;;5074275;28;20047;-83
2022/01/08 04:11:51;;;;;;;27.90;13.25;;;;;;;;;;5076028;28;20058;-83
2022/01/08 04:14:19;;;;;;;24.83;13.18;;;;;;;;;;5092305;28;20051;-83
2022/01/08 04:16:49;;;;;;;20.23;11.48;;;;;;;;;;5092204;28;20043;-83
2022/01/08 04:19:16;;;;;;;26.42;12.20;;;;;;;;;;5092511;28;20097;-82
2022/01/08 04:24:14;;;;;;;22.65;11.63;;;;;;;;;;5091965;28;20044;-83
2022/01/08 04:26:40;;;;;;;20.50;10.25;;;;;;;;;;5075385;28;20739;-83
2022/01/08 04:29:07;;;;;;;19.05;9.88;;;;;;;;;;5075416;28;20044;-83
2022/01/08 04:31:34;;;;;;;21.63;9.50;;;;;;;;;;5092237;28;20036;-82
2022/01/08 04:34:00;;;;;;;21.02;9.90;;;;;;;;;;5092138;28;20032;-83
2022/01/08 04:36:26;;;;;;;22.10;9.15;;;;;;;;;;5092063;28;20654;-83
2022/01/08 04:38:52;;;;;;;20.20;9.07;;;;;;;;;;5091865;28;20129;-82
2022/01/08 04:41:19;;;;;;;17.23;8.20;;;;;;;;;;5091788;28;20040;-82
2022/01/08 04:43:45;;;;;;;18.45;8.07;;;;;;;;;;5091689;28;20040;-83
2022/01/08 04:46:11;;;;;;;16.80;7.90;;;;;;;;;;5092018;28;20114;-83
2022/01/08 04:48:37;;;;;;;16.88;8.15;;;;;;;;;;5091648;28;20101;-82
2022/01/08 04:51:04;;;;;;;16.58;7.05;;;;;;;;;;5091427;28;20051;-82
2022/01/08 04:53:30;;;;;;;17.05;6.88;;;;;;;;;;5091222;28;20043;-83
2022/01/08 04:55:56;;;;;;;15.15;7.88;;;;;;;;;;5074638;28;20089;-83
2022/01/08 04:58:22;;;;;;;20.33;7.70;;;;;;;;;;5091471;28;20044;-83
2022/01/08 05:00:48;;;;;;;15.48;6.70;;;;;;;;;;5091287;28;20133;-83
2022/01/08 05:03:14;;;;;;;17.58;6.60;;;;;;;;;;5091719;28;20048;-83
2022/01/08 05:05:40;;;;;;;18.98;7.60;;;;;;;;;;5074640;28;20458;-83
2022/01/08 05:08:07;;;;;;;16.90;6.93;;;;;;;;;;5091683;28;20043;-83
2022/01/08 05:10:34;;;;;;;19.60;7.97;;;;;;;;;;5091123;28;20554;-82
2022/01/08 05:13:05;;;;;;;18.52;7.88;;;;;;;;;;5093453;28;20048;-82
2022/01/08 05:15:32;;;;;;;19.35;7.80;;;;;;;;;;5111249;28;20036;-83
2022/01/08 05:17:58;;;;;;;18.30;8.18;;;;;;;;;;5111471;28;20043;-83
2022/01/08 05:20:30;;;;;;;23.83;9.90;;;;;;;;;;5111350;28;20727;-83
2022/01/08 05:23:00;;;;;;;17.88;8.80;;;;;;;;;;5111609;28;20213;-83
2022/01/08 05:25:26;;;;;;;24.85;9.77;;;;;;;;;;5111530;28;20051;-83
2022/01/08 05:27:52;;;;;;;20.55;9.82;;;;;;;;;;5111406;28;20040;-83
2022/01/08 05:30:20;;;;;;;20.30;9.93;;;;;;;;;;5111052;28;20040;-83
2022/01/08 05:32:47;;;;;;;22.25;10.63;;;;;;;;;;5111219;28;20036;-83
2022/01/08 05:35:13;;;;;;;24.92;9.63;;;;;;;;;;5111297;28;20490;-83
2022/01/08 05:37:39;;;;;;;20.75;10.40;;;;;;;;;;5100157;28;20817;-82
2022/01/08 05:40:06;;;;;;;23.83;10.93;;;;;;;;;;5105860;28;20036;-83
2022/01/08 05:42:32;;;;;;;22.27;11.02;;;;;;;;;;5111089;28;20043;-83
2022/01/08 05:44:58;;;;;;;23.48;10.73;;;;;;;;;;5110945;28;20043;-83
2022/01/08 05:47:28;;;;;;;23.48;11.70;;;;;;;;;;5110894;28;20085;-83
2022/01/08 05:49:54;;;;;;;23.05;11.75;;;;;;;;;;5110818;28;20074;-83
2022/01/08 05:52:20;;;;;;;27.23;12.13;;;;;;;;;;5110989;28;20079;-83
2022/01/08 05:54:47;;;;;;;24.50;11.43;;;;;;;;;;5110563;28;20047;-82
2022/01/08 05:57:14;;;;;;;24.40;12.60;;;;;;;;;;5110931;28;20148;-83
2022/01/08 05:59:40;;;;;;;26.60;12.35;;;;;;;;;;5110646;28;20187;-83
2022/01/08 06:02:08;;;;;;;31.70;12.88;;;;;;;;;;5093636;28;20113;-83
2022/01/08 06:04:34;;;;;;;32.95;13.68;;;;;;;;;;5110689;28;20043;-83
2022/01/08 06:07:00;;;;;;;29.77;13.52;;;;;;;;;;5110801;28;20429;-82
2022/01/08 06:09:27;;;;;;;21.67;11.40;;;;;;;;;;5093357;28;20055;-82
2022/01/08 06:11:53;;;;;;;26.92;12.73;;;;;;;;;;5093835;28;20047;-82
2022/01/08 06:14:19;;;;;;;25.10;12.35;;;;;;;;;;5110604;28;20043;-82
2022/01/08 06:16:45;;;;;;;27.88;13.13;;;;;;;;;;5110219;28;20067;-82
2022/01/08 06:19:13;;;;;;;28.83;13.07;;;;;;;;;;5110631;28;20039;-82
2022/01/08 06:21:39;;;;;;;29.23;13.13;;;;;;;;;;5093495;28;20663;-81
2022/01/08 06:24:06;;;;;;;28.35;13.85;;;;;;;;;;5110762;28;20467;-82
2022/01/08 06:26:32;;;;;;;27.95;13.68;;;;;;;;;;5093131;28;20047;-82
2022/01/08 06:28:59;;;;;;;31.25;13.18;;;;;;;;;;5110218;28;20123;-82
2022/01/08 06:31:25;;;;;;;26.00;13.70;;;;;;;;;;5093966;28;20142;-81
2022/01/08 06:33:52;;;;;;;26.98;13.98;;;;;;;;;;5114401;28;20042;-82
2022/01/08 06:36:19;;;;;;;35.15;14.98;;;;;;;;;;5097378;28;20039;-81
2022/01/08 06:38:48;;;;;;;28.75;13.98;;;;;;;;;;5114774;28;20499;-81
2022/01/08 06:41:15;;;;;;;29.65;14.60;;;;;;;;;;5114606;28;20046;-81
2022/01/08 06:43:41;;;;;;;26.27;14.70;;;;;;;;;;5114294;28;20050;-81
2022/01/08 06:46:07;;;;;;;30.83;15.82;;;;;;;;;;5097245;28;20036;-82
2022/01/08 06:48:33;;;;;;;34.08;15.98;;;;;;;;;;5114209;28;20092;-82
2022/01/08 06:51:00;;;;;;;37.35;16.20;;;;;;;;;;5114104;28;20418;-82
2022/01/08 06:53:27;;;;;;;34.15;16.80;;;;;;;;;;5114343;28;20543;-82
2022/01/08 06:55:53;;;;;;;31.33;15.65;;;;;;;;;;5096951;28;20077;-82
2022/01/08 06:58:20;;;;;;;38.65;16.42;;;;;;;;;;5102685;28;20059;-82
2022/01/08 07:00:47;;;;;;;35.58;16.00;;;;;;;;;;5093755;28;20044;-81
2022/01/08 07:03:13;;;;;;;31.50;15.35;;;;;;;;;;5093552;28;20050;-82
2022/01/08 07:05:40;;;;;;;31.75;14.98;;;;;;;;;;5093528;28;20090;-82
2022/01/08 07:08:07;;;;;;;34.50;15.52;;;;;;;;;;5093701;28;20446;-82
2022/01/08 07:10:33;;;;;;;35.50;15.90;;;;;;;;;;5093348;28;20040;-82
2022/01/08 07:12:59;;;;;;;31.30;14.65;;;;;;;;;;5110092;28;20415;-81
2022/01/08 07:15:26;;;;;;;29.08;15.10;;;;;;;;;;5076721;28;20040;-82
2022/01/08 07:17:52;;;;;;;27.20;14.68;;;;;;;;;;5093451;28;20046;-82
2022/01/08 07:20:18;;;;;;;31.13;15.68;;;;;;;;;;5093964;28;20040;-82
2022/01/08 07:22:44;;;;;;;28.48;14.45;;;;;;;;;;5113654;28;20035;-82
2022/01/08 07:25:11;;;;;;;28.27;14.20;;;;;;;;;;5096771;28;20050;-82
2022/01/08 07:27:37;;;;;;;29.85;13.70;;;;;;;;;;5113593;28;20044;-82
2022/01/08 07:30:05;;;;;;;27.85;13.90;;;;;;;;;;5113394;28;20035;-81
2022/01/08 07:32:31;;;;;;;27.35;13.43;;;;;;;;;;5095733;28;20032;-82
2022/01/08 07:34:57;;;;;;;25.88;12.43;;;;;;;;;;5093010;28;20044;-82
2022/01/08 07:37:23;;;;;;;31.90;14.30;;;;;;;;;;5093022;28;20119;-81
2022/01/08 07:39:50;;;;;;;26.10;13.13;;;;;;;;;;5092805;28;20052;-82
2022/01/08 07:42:16;;;;;;;31.25;14.50;;;;;;;;;;5092633;28;20058;-82
2022/01/08 07:44:42;;;;;;;27.95;13.88;;;;;;;;;;5098806;28;20399;-82
2022/01/08 07:47:08;;;;;;;29.70;13.07;;;;;;;;;;5092475;28;20040;-82
2022/01/08 07:49:35;;;;;;;28.02;13.50;;;;;;;;;;5102515;28;20044;-82
2022/01/08 07:52:01;;;;;;;25.55;13.27;;;;;;;;;;5094299;28;20032;-82
2022/01/08 07:54:27;;;;;;;28.23;12.35;;;;;;;;;;5076637;28;20105;-82
2022/01/08 07:56:53;;;;;;;25.52;12.90;;;;;;;;;;5102162;28;20040;-82
2022/01/08 07:59:19;;;;;;;27.45;12.52;;;;;;;;;;5100847;28;20040;-82
2022/01/08 08:01:46;;;;;;;27.85;13.30;;;;;;;;;;5094392;28;20384;-81
2022/01/08 08:04:12;;;;;;;26.77;12.93;;;;;;;;;;5105580;28;20069;-81
2022/01/08 08:06:45;;;;;;;26.58;13.75;;;;;;;;;;5096481;28;20040;-82
2022/01/08 08:09:33;;;;;;;28.98;14.60;;;;;;;;;;5102425;28;20040;-81
2022/01/08 08:11:59;;;;;;;31.83;14.70;;;;;;;;;;5102053;28;20044;-81
2022/01/08 08:14:25;;;;;;;26.98;14.35;;;;;;;;;;5101644;28;20051;-82
2022/01/08 08:16:51;;;;;;;31.70;14.13;;;;;;;;;;5099393;28;20402;-82
2022/01/08 08:19:18;;;;;;;25.60;13.73;;;;;;;;;;5094996;28;20040;-82
2022/01/08 08:21:44;;;;;;;27.67;13.88;;;;;;;;;;5105717;28;20055;-82
2022/01/08 08:24:10;;;;;;;27.83;14.20;;;;;;;;;;5094596;28;20048;-82
2022/01/08 08:26:38;;;;;;;27.15;13.57;;;;;;;;;;5100306;28;20113;-82
2022/01/08 08:29:04;;;;;;;28.08;13.07;;;;;;;;;;5091149;28;20043;-81
2022/01/08 08:31:31;;;;;;;30.67;14.07;;;;;;;;;;5077773;28;20036;-81
2022/01/08 08:33:57;;;;;;;27.13;13.80;;;;;;;;;;5093350;28;20383;-82
2022/01/08 08:36:23;;;;;;;26.08;12.40;;;;;;;;;;5089284;28;20064;-82
2022/01/08 08:38:49;;;;;;;27.05;13.60;;;;;;;;;;5071475;28;20043;-82
2022/01/08 08:41:15;;;;;;;33.92;13.75;;;;;;;;;;5095834;28;20487;-82
2022/01/08 08:43:41;;;;;;;24.65;13.02;;;;;;;;;;5093340;28;20048;-82
2022/01/08 08:46:08;;;;;;;24.73;12.82;;;;;;;;;;5098632;28;20043;-82
2022/01/08 08:48:34;;;;;;;29.05;14.13;;;;;;;;;;5094113;28;20048;-82
2022/01/08 08:51:00;;;;;;;29.00;12.88;;;;;;;;;;5074818;28;20085;-82
2022/01/08 08:53:27;;;;;;;28.38;13.02;;;;;;;;;;5098457;28;20043;-82
2022/01/08 08:55:53;;;;;;;28.65;12.07;;;;;;;;;;5076128;28;20050;-82
2022/01/08 08:58:19;;;;;;;26.75;11.63;;;;;;;;;;5093598;28;20059;-82
2022/01/08 09:00:45;;;;;;;25.42;12.25;;;;;;;;;;5101978;28;20630;-83
2022/01/08 09:03:21;;;;;;;25.65;11.88;;;;;;;;;;5103851;28;20146;-82
2022/01/08 09:05:48;;;;;;;24.50;11.60;;;;;;;;;;5088098;28;20126;-82
2022/01/08 09:08:14;;;;;;;21.27;10.88;;;;;;;;;;5099409;28;20440;-82
2022/01/08 09:10:40;;;;;;;22.20;11.02;;;;;;;;;;5091004;28;20039;-82
2022/01/08 09:13:06;;;;;;;21.38;10.90;;;;;;;;;;5080014;28;20118;-83
2022/01/08 09:15:36;;;;;;;24.33;10.82;;;;;;;;;;5105371;28;20044;-83
2022/01/08 09:18:03;;;;;;;23.92;10.98;;;;;;;;;;5087444;28;20519;-82
2022/01/08 09:20:29;;;;;;;23.42;10.40;;;;;;;;;;5087284;28;20039;-82
2022/01/08 09:22:56;;;;;;;24.20;11.10;;;;;;;;;;5094078;28;20043;-82
2022/01/08 09:25:22;;;;;;;20.15;10.73;;;;;;;;;;5101987;28;20243;-82
2022/01/08 09:27:48;;;;;;;20.92;10.50;;;;;;;;;;5108347;28;20036;-82
2022/01/08 09:30:15;;;;;;;24.48;11.27;;;;;;;;;;5101263;28;20069;-82
2022/01/08 09:32:44;;;;;;;26.50;11.02;;;;;;;;;;5093547;28;20042;-82
2022/01/08 09:35:10;;;;;;;25.27;11.23;;;;;;;;;;5094460;28;20032;-83
2022/01/08 09:37:39;;;;;;;30.75;11.18;;;;;;;;;;5098968;28;20036;-82
2022/01/08 09:40:06;;;;;;;21.60;10.63;;;;;;;;;;5089407;28;20040;-82
2022/01/08 09:42:32;;;;;;;19.45;9.98;;;;;;;;;;5105398;28;20040;-81
2022/01/08 09:44:59;;;;;;;26.30;10.65;;;;;;;;;;5083616;28;20039;-82
2022/01/08 09:47:25;;;;;;;29.05;11.32;;;;;;;;;;5106598;27;20119;-82
2022/01/08 09:49:51;;;;;;;23.30;11.32;;;;;;;;;;5074043;28;20051;-82
2022/01/08 09:52:19;;;;;;;26.15;12.20;;;;;;;;;;5072385;28;20044;-82
2022/01/08 09:54:45;;;;;;;23.55;11.18;;;;;;;;;;5077966;28;20477;-82
2022/01/08 09:57:11;;;;;;;28.00;11.43;;;;;;;;;;5071973;28;20035;-82
2022/01/08 09:59:37;;;;;;;28.00;12.18;;;;;;;;;;5094059;28;20032;-82
2022/01/08 10:02:04;;;;;;;23.35;11.43;;;;;;;;;;5079714;28;20078;-82
2022/01/08 10:07:59;;;;;;;24.25;11.20;;;;;;;;;;5097606;28;20038;-82
2022/01/08 10:10:25;;;;;;;20.40;11.00;;;;;;;;;;5098405;28;20068;-82
2022/01/08 10:12:55;;;;;;;24.50;11.55;;;;;;;;;;5091933;28;20031;-83
2022/01/08 10:18:20;;;;;;;21.90;11.30;;;;;;;;;;5092868;28;20427;-82
2022/01/08 10:20:49;;;;;;;21.60;10.63;;;;;;;;;;5110150;28;20100;-83
2022/01/08 10:23:21;;;;;;;22.67;10.60;;;;;;;;;;5107867;28;20498;-82
2022/01/08 10:26:01;;;;;;;21.45;9.90;;;;;;;;;;5075199;28;20055;-83
2022/01/08 10:28:35;;;;;;;22.40;10.63;;;;;;;;;;5100005;28;20039;-83
2022/01/08 10:31:08;;;;;;;17.25;10.52;;;;;;;;;;5093321;28;20483;-83
2022/01/08 10:33:34;;;;;;;20.63;9.47;;;;;;;;;;5085375;28;20126;-83
2022/01/08 10:36:01;;;;;;;19.58;8.82;;;;;;;;;;5090994;28;20039;-83
2022/01/08 10:38:30;;;;;;;16.73;9.20;;;;;;;;;;5093384;28;20118;-83
2022/01/08 10:40:58;;;;;;;18.80;9.07;;;;;;;;;;5103906;28;20044;-83
2022/01/08 10:43:29;;;;;;;16.70;9.23;;;;;;;;;;5089342;28;20028;-83
2022/01/08 10:45:56;;;;;;;20.42;9.98;;;;;;;;;;5076861;28;20519;-84
2022/01/08 10:48:32;;;;;;;21.15;9.27;;;;;;;;;;5081370;28;20048;-84
2022/01/08 10:51:11;;;;;;;19.88;10.07;;;;;;;;;;5074667;28;20048;-83
2022/01/08 10:54:13;;;;;;;18.33;10.40;;;;;;;;;;5055639;28;20036;-84
2022/01/08 10:56:51;;;;;;;20.17;10.10;;;;;;;;;;5099660;28;20048;-84
2022/01/08 11:02:44;;;;;;;21.67;11.35;;;;;;;;;;5048747;28;20090;-85
2022/01/08 11:05:13;;;;;;;17.73;11.33;;;;;;;;;;5036296;28;20041;-84
2022/01/08 11:08:21;;;;;;;22.30;11.50;;;;;;;;;;5034815;28;20278;-84
2022/01/08 11:11:27;;;;;;;21.70;12.52;;;;;;;;;;5041098;28;20041;-85
2022/01/08 11:13:53;;;;;;;;;;;;;;;;;;5030355;28;20029;-85
2022/01/08 11:16:51;;;;;;;20.48;11.90;;;;;;;;;;5053119;28;19923;-86
2022/01/08 11:19:53;;;;;;;25.05;12.85;;;;;;;;;;4989014;28;20049;-86
2022/01/08 11:23:36;;;;;;;19.20;12.13;;;;;;;;;;5052905;28;20083;-87
2022/01/08 11:27:00;;;;;;;20.48;12.75;;;;;;;;;;5034064;28;20756;-85
2022/01/08 11:36:52;;;;;;;21.10;12.35;;;;;;;;;;5034250;28;20090;-85
2022/01/08 11:39:27;;;;;;;23.30;13.13;;;;;;;;;;5052280;28;20058;-84
2022/01/08 11:46:07;;;;;;;20.42;12.05;;;;;;;;;;5055971;28;20105;-85
2022/01/08 11:49:47;;;;;;;22.30;12.48;;;;;;;;;;4950459;29;20098;-85
2022/01/08 12:10:31;;;;;;;21.25;12.35;;;;;;;;;;4838661;29;20471;-86
2022/01/08 12:20:59;;;;;;;25.10;13.25;;;;;;;;;;4766261;29;20104;-86
2022/01/08 12:48:20;;;;;;;29.35;18.67;;;;;;;;;;4833239;29;20110;-86
2022/01/08 13:10:29;;;;;;;28.40;20.17;;;;;;;;;;4968627;28;20049;-87
2022/01/08 13:16:52;;;;;;;26.95;21.13;;;;;;;;;;5020621;28;20076;-87
2022/01/08 13:20:17;;;;;;;34.58;22.08;;;;;;;;;;5024638;28;20140;-87
2022/01/08 13:23:04;;;;;;;33.67;21.67;;;;;;;;;;5068031;28;20075;-86
2022/01/08 13:33:05;;;;;;;38.20;23.42;;;;;;;;;;5049437;28;20091;-86
2022/01/08 13:36:43;;;;;;;29.98;20.90;;;;;;;;;;4969284;28;20086;-86
2022/01/08 13:46:56;;;;;;;31.58;22.05;;;;;;;;;;4986417;28;20037;-86
2022/01/08 13:53:43;;;;;;;30.02;20.38;;;;;;;;;;4970304;28;20113;-89
2022/01/08 14:07:31;;;;;;;31.13;19.98;;;;;;;;;;4904082;29;20047;-86
2022/01/08 14:29:06;;;;;;;28.60;18.02;;;;;;;;;;4944107;29;20039;-86
2022/01/08 14:32:19;;;;;;;30.77;20.42;;;;;;;;;;4931655;29;20065;-86
2022/01/08 14:41:55;;;;;;;30.95;18.38;;;;;;;;;;5021379;28;20122;-86
2022/01/08 14:45:11;;;;;;;28.50;17.73;;;;;;;;;;4996598;28;20587;-88
2022/01/08 14:55:09;;;;;;;26.98;16.80;;;;;;;;;;4983449;28;20112;-89
2022/01/08 14:57:35;;;;;;;29.52;17.63;;;;;;;;;;4954706;28;20051;-87
2022/01/08 15:00:01;;;;;;;27.40;16.17;;;;;;;;;;5000712;28;20555;-89
2022/01/08 15:02:30;;;;;;;28.40;16.95;;;;;;;;;;5013872;28;20057;-88
2022/01/08 15:04:57;;;;;;;32.35;18.95;;;;;;;;;;5008149;28;20127;-87
2022/01/08 15:07:23;;;;;;;33.13;19.02;;;;;;;;;;5033396;28;20488;-86
2022/01/08 15:13:16;;;;;;;35.60;20.20;;;;;;;;;;5061981;28;20051;-86
2022/01/08 15:15:51;;;;;;;30.15;17.42;;;;;;;;;;5034604;28;20520;-85
2022/01/08 15:19:16;;;;;;;29.92;17.25;;;;;;;;;;5079028;28;20085;-86
2022/01/08 15:22:21;;;;;;;29.80;16.80;;;;;;;;;;5060007;28;20124;-87
2022/01/08 15:25:32;;;;;;;27.45;17.00;;;;;;;;;;5007411;28;20055;-88
2022/01/08 15:28:43;;;;;;;28.67;16.73;;;;;;;;;;5046634;28;20055;-88
2022/01/08 15:31:54;;;;;;;24.58;15.23;;;;;;;;;;5039895;28;20122;-88
2022/01/08 15:35:22;;;;;;;27.20;15.27;;;;;;;;;;5042136;28;20120;-86
2022/01/08 15:41:49;;;;;;;26.73;14.95;;;;;;;;;;4949179;29;20038;-89
2022/01/08 15:44:42;;;;;;;22.90;14.38;;;;;;;;;;4930760;29;20452;-87
2022/01/08 15:47:44;;;;;;;23.95;12.85;;;;;;;;;;4941508;29;20564;-89
2022/01/08 15:50:46;;;;;;;23.77;13.48;;;;;;;;;;4947377;29;20047;-87
2022/01/08 15:53:51;;;;;;;;;;;;;;;;;;4929152;29;20551;-87
2022/01/08 15:57:29;;;;;;;20.65;11.82;;;;;;;;;;4930247;29;20306;-85
2022/01/08 16:00:35;;;;;;;19.75;11.95;;;;;;;;;;4895014;29;20054;-87
2022/01/08 16:03:52;;;;;;;17.33;11.27;;;;;;;;;;4896300;29;20184;-87
2022/01/08 16:06:50;;;;;;;19.45;10.93;;;;;;;;;;4805334;29;20050;-87
2022/01/08 16:09:48;;;;;;;18.48;10.20;;;;;;;;;;4920525;28;20047;-86
2022/01/08 16:12:28;;;;;;;15.63;9.65;;;;;;;;;;4925249;28;20218;-84
2022/01/08 16:14:54;;;;;;;16.00;9.23;;;;;;;;;;4907403;28;20510;-88
2022/01/08 16:17:21;;;;;;;16.88;9.43;;;;;;;;;;4986447;28;20056;-88
2022/01/08 16:19:47;;;;;;;17.35;9.35;;;;;;;;;;4976109;28;20136;-87
2022/01/08 16:22:13;;;;;;;16.55;9.68;;;;;;;;;;4972778;28;20441;-87
2022/01/08 16:24:39;;;;;;;20.02;9.75;;;;;;;;;;4974059;28;20049;-86
2022/01/08 16:27:06;;;;;;;19.05;9.73;;;;;;;;;;4966298;28;20055;-85
2022/01/08 16:29:34;;;;;;;31.75;17.85;;;;;;;;;;4952971;28;20101;-85
2022/01/08 16:32:22;;;;;;;17.58;10.02;;;;;;;;;;5043076;28;20445;-84
2022/01/08 16:35:02;;;;;;;17.20;9.38;;;;;;;;;;5057439;28;20040;-87
2022/01/08 16:37:35;;;;;;;15.43;10.00;;;;;;;;;;5062761;28;20033;-87
2022/01/08 16:40:03;;;;;;;14.77;9.13;;;;;;;;;;5056975;28;20040;-91
2022/01/08 16:42:47;;;;;;;16.70;8.88;;;;;;;;;;5063027;28;20079;-84
2022/01/08 16:46:08;;;;;;;15.30;7.63;;;;;;;;;;4999197;28;20046;-87
2022/01/08 16:48:45;;;;;;;13.23;7.78;;;;;;;;;;4982463;28;20037;-86
2022/01/08 16:51:38;;;;;;;14.30;8.43;;;;;;;;;;5050871;28;20044;-87
2022/01/08 16:55:11;;;;;;;13.20;7.88;;;;;;;;;;5079802;28;20054;-87
2022/01/08 16:57:38;;;;;;;14.18;8.45;;;;;;;;;;5053188;28;20052;-86
2022/01/08 17:00:09;;;;;;;13.13;8.30;;;;;;;;;;5047910;28;20048;-88
2022/01/08 17:02:52;;;;;;;;;;;;;;;;;;5073571;28;20056;-85
2022/01/08 17:05:22;;;;;;;15.48;9.32;;;;;;;;;;5034986;28;20434;-87
2022/01/08 17:07:58;;;;;;;14.90;9.13;;;;;;;;;;5064581;28;20128;-87
2022/01/08 17:10:25;;;;;;;15.25;8.73;;;;;;;;;;5053835;28;20102;-86
2022/01/08 17:12:51;;;;;;;17.45;9.27;;;;;;;;;;5092458;28;20108;-89
2022/01/08 17:15:43;;;;;;;14.05;9.23;;;;;;;;;;5084615;28;20042;-89
2022/01/08 17:18:20;;;;;;;15.40;8.88;;;;;;;;;;5052395;28;20499;-86
2022/01/08 17:20:46;;;;;;;16.08;9.70;;;;;;;;;;5061965;28;20032;-85
2022/01/08 17:23:12;;;;;;;16.38;10.93;;;;;;;;;;5066437;28;20490;-90
2022/01/08 17:25:39;;;;;;;14.90;9.68;;;;;;;;;;5065171;28;20454;-86
2022/01/08 17:28:05;;;;;;;16.83;10.50;;;;;;;;;;5086020;28;20046;-85
2022/01/08 17:30:31;;;;;;;17.35;10.85;;;;;;;;;;5055889;28;20061;-86
2022/01/08 17:32:58;;;;;;;18.10;11.75;;;;;;;;;;5055115;28;20453;-87
2022/01/08 17:35:24;;;;;;;17.70;11.07;;;;;;;;;;5058712;28;20039;-90
2022/01/08 17:37:50;;;;;;;18.88;10.60;;;;;;;;;;5067159;28;20085;-90
2022/01/08 17:40:16;;;;;;;21.40;12.90;;;;;;;;;;5062525;28;20040;-86
2022/01/08 17:42:42;;;;;;;21.48;13.20;;;;;;;;;;5068166;28;20093;-87
2022/01/08 17:45:10;;;;;;;18.48;12.82;;;;;;;;;;5068653;28;20046;-89
2022/01/08 17:47:36;;;;;;;24.40;16.33;;;;;;;;;;5061172;28;20051;-87
2022/01/08 17:50:03;;;;;;;23.77;16.77;;;;;;;;;;5063400;28;20071;-90
2022/01/08 17:52:29;;;;;;;25.10;18.00;;;;;;;;;;5078274;28;20100;-87
2022/01/08 17:54:55;;;;;;;23.00;16.67;;;;;;;;;;5073796;28;20198;-88
2022/01/08 17:57:21;;;;;;;24.30;18.75;;;;;;;;;;5068457;28;20322;-89